createdAt,value
2017-09-11T00:00:52.806Z,90.44
2017-09-11T00:01:59.459Z,90.28
2017-09-11T00:03:06.147Z,89.71
2017-09-11T00:04:13.333Z,89.73
2017-09-11T00:05:19.817Z,90.02
2017-09-11T00:06:26.007Z,89.85
2017-09-11T00:07:32.919Z,89.71
2017-09-11T00:08:39.148Z,89.74
2017-09-11T00:09:45.919Z,89.61
2017-09-11T00:10:52.122Z,89.79
2017-09-11T00:11:58.477Z,90.19
2017-09-11T00:13:05.722Z,89.71
2017-09-11T00:14:12.160Z,89.40
2017-09-11T00:15:18.460Z,89.31
2017-09-11T00:16:26.101Z,89.78
2017-09-11T00:17:32.435Z,89.38
2017-09-11T00:18:39.368Z,89.58
2017-09-11T00:19:45.722Z,89.47
2017-09-11T00:20:52.085Z,89.79
2017-09-11T00:21:58.975Z,90.54
2017-09-11T00:23:05.518Z,90.60
2017-09-11T00:24:11.947Z,90.89
2017-09-11T00:25:19.511Z,91.03
2017-09-11T00:26:26.251Z,90.33
2017-09-11T00:27:33.637Z,90.23
2017-09-11T00:28:39.771Z,89.56
2017-09-11T00:29:46.076Z,89.44
2017-09-11T00:30:52.313Z,90.20
2017-09-11T00:31:59.405Z,89.75
2017-09-11T00:33:06.009Z,89.14
2017-09-11T00:34:13.006Z,89.49
2017-09-11T00:35:20.069Z,89.21
2017-09-11T00:36:27.628Z,89.28
2017-09-11T00:37:34.009Z,89.61
2017-09-11T00:38:40.854Z,89.44
2017-09-11T00:39:47.074Z,89.40
2017-09-11T00:40:53.928Z,89.41
2017-09-11T00:42:00.391Z,89.54
2017-09-11T00:43:07.010Z,89.43
2017-09-11T00:44:13.437Z,89.45
2017-09-11T00:45:20.371Z,89.53
2017-09-11T00:46:26.458Z,89.62
2017-09-11T00:47:33.099Z,89.62
2017-09-11T00:48:39.731Z,89.78
2017-09-11T00:49:45.984Z,89.83
2017-09-11T00:50:51.706Z,89.74
2017-09-11T00:51:57.840Z,89.77
2017-09-11T00:53:03.744Z,89.70
2017-09-11T00:54:09.831Z,89.92
2017-09-11T00:55:15.367Z,90.08
2017-09-11T00:56:21.116Z,90.20
2017-09-11T00:57:27.340Z,90.26
2017-09-11T00:58:33.580Z,90.52
2017-09-11T00:59:39.991Z,90.48
2017-09-11T01:00:46.634Z,90.50
2017-09-11T01:01:52.773Z,91.25
2017-09-11T01:02:58.799Z,91.40
2017-09-11T01:04:04.999Z,91.36
2017-09-11T01:05:11.704Z,91.26
2017-09-11T01:06:17.943Z,91.43
2017-09-11T01:07:24.582Z,91.26
2017-09-11T01:08:32.082Z,91.34
2017-09-11T01:09:38.074Z,91.71
2017-09-11T01:10:44.483Z,92.59
2017-09-11T01:11:51.019Z,92.58
2017-09-11T01:12:57.473Z,93.16
2017-09-11T01:14:03.854Z,93.25
2017-09-11T01:15:10.379Z,93.06
2017-09-11T01:16:16.996Z,93.14
2017-09-11T01:17:23.352Z,92.99
2017-09-11T01:18:29.815Z,92.49
2017-09-11T01:19:35.594Z,92.48
2017-09-11T01:20:41.946Z,92.97
2017-09-11T01:21:47.655Z,92.83
2017-09-11T01:22:53.435Z,93.28
2017-09-11T01:23:59.450Z,93.04
2017-09-11T01:25:05.341Z,92.79
2017-09-11T01:26:10.904Z,93.29
2017-09-11T01:27:17.031Z,93.46
2017-09-11T01:28:22.965Z,93.03
2017-09-11T01:29:29.279Z,92.89
2017-09-11T01:30:34.944Z,92.86
2017-09-11T01:31:41.244Z,93.13
2017-09-11T01:32:47.729Z,93.23
2017-09-11T01:33:54.293Z,93.38
2017-09-11T01:35:00.487Z,93.38
2017-09-11T01:36:06.740Z,93.40
2017-09-11T01:37:13.395Z,93.16
2017-09-11T01:38:19.947Z,93.30
2017-09-11T01:39:26.998Z,94.04
2017-09-11T01:40:34.002Z,93.93
2017-09-11T01:41:40.724Z,93.75
2017-09-11T01:42:48.262Z,93.72
2017-09-11T01:43:55.286Z,93.50
2017-09-11T01:45:01.707Z,93.24
2017-09-11T01:46:08.187Z,93.37
2017-09-11T01:47:14.470Z,93.81
2017-09-11T01:48:20.831Z,93.57
2017-09-11T01:49:27.261Z,94.02
2017-09-11T01:50:33.448Z,93.98
2017-09-11T01:51:39.905Z,94.17
2017-09-11T01:52:46.400Z,93.74
2017-09-11T01:53:52.799Z,93.83
2017-09-11T01:54:59.235Z,93.67
2017-09-11T01:56:06.455Z,93.26
2017-09-11T01:57:12.855Z,93.26
2017-09-11T01:58:19.380Z,93.55
2017-09-11T01:59:26.111Z,93.75
2017-09-11T02:00:32.424Z,93.28
2017-09-11T02:01:38.538Z,93.01
2017-09-11T02:02:45.108Z,93.28
2017-09-11T02:03:52.301Z,93.85
2017-09-11T02:04:58.287Z,93.88
2017-09-11T02:06:04.486Z,94.27
2017-09-11T02:07:10.932Z,93.84
2017-09-11T02:08:17.286Z,93.50
2017-09-11T02:09:24.342Z,93.59
2017-09-11T02:10:31.411Z,93.40
2017-09-11T02:11:37.799Z,93.37
2017-09-11T02:12:44.212Z,93.98
2017-09-11T02:13:50.392Z,93.99
2017-09-11T02:14:56.752Z,93.60
2017-09-11T02:16:03.327Z,93.52
2017-09-11T02:17:09.657Z,93.37
2017-09-11T02:18:16.938Z,93.49
2017-09-11T02:19:23.478Z,93.48
2017-09-11T02:20:29.804Z,93.25
2017-09-11T02:21:35.862Z,93.88
2017-09-11T02:22:42.934Z,93.72
2017-09-11T02:23:49.261Z,93.58
2017-09-11T02:24:57.534Z,93.14
2017-09-11T02:26:04.884Z,93.27
2017-09-11T02:27:11.035Z,93.26
2017-09-11T02:28:17.181Z,93.73
2017-09-11T02:29:23.520Z,93.76
2017-09-11T02:30:29.504Z,93.83
2017-09-11T02:31:35.351Z,93.78
2017-09-11T02:32:42.425Z,93.70
2017-09-11T02:33:49.513Z,93.51
2017-09-11T02:34:55.960Z,93.37
2017-09-11T02:36:01.499Z,93.72
2017-09-11T02:37:08.022Z,94.08
2017-09-11T02:38:14.797Z,93.75
2017-09-11T02:39:21.149Z,93.41
2017-09-11T02:40:27.560Z,93.36
2017-09-11T02:41:34.012Z,93.02
2017-09-11T02:42:40.464Z,93.31
2017-09-11T02:43:46.994Z,93.34
2017-09-11T02:44:53.735Z,93.32
2017-09-11T02:46:00.679Z,93.77
2017-09-11T02:47:07.575Z,93.98
2017-09-11T02:48:13.736Z,93.74
2017-09-11T02:49:20.597Z,93.24
2017-09-11T02:50:27.048Z,92.98
2017-09-11T02:51:33.564Z,92.84
2017-09-11T02:52:40.043Z,92.88
2017-09-11T02:53:46.450Z,92.83
2017-09-11T02:54:53.069Z,93.55
2017-09-11T02:55:59.263Z,93.65
2017-09-11T02:57:05.794Z,93.83
2017-09-11T02:58:12.693Z,93.25
2017-09-11T02:59:19.238Z,93.68
2017-09-11T03:00:26.162Z,94.15
2017-09-11T03:01:32.174Z,93.73
2017-09-11T03:02:38.376Z,93.58
2017-09-11T03:03:45.490Z,93.84
2017-09-11T03:04:51.998Z,93.70
2017-09-11T03:05:59.156Z,93.36
2017-09-11T03:07:05.365Z,93.09
2017-09-11T03:08:11.684Z,93.21
2017-09-11T03:09:18.998Z,93.21
2017-09-11T03:10:26.151Z,93.34
2017-09-11T03:11:32.292Z,93.55
2017-09-11T03:12:39.381Z,93.65
2017-09-11T03:13:45.675Z,93.38
2017-09-11T03:14:52.063Z,93.54
2017-09-11T03:15:58.535Z,93.45
2017-09-11T03:17:04.580Z,93.84
2017-09-11T03:18:11.111Z,93.73
2017-09-11T03:19:17.445Z,93.85
2017-09-11T03:20:24.699Z,93.94
2017-09-11T03:21:31.000Z,94.19
2017-09-11T03:22:37.260Z,93.92
2017-09-11T03:23:43.715Z,94.22
2017-09-11T03:24:50.162Z,94.65
2017-09-11T03:25:56.558Z,95.03
2017-09-11T03:27:03.792Z,95.03
2017-09-11T03:28:10.241Z,95.24
2017-09-11T03:29:17.366Z,95.49
2017-09-11T03:30:24.127Z,95.39
2017-09-11T03:31:30.250Z,95.20
2017-09-11T03:32:36.962Z,95.02
2017-09-11T03:33:43.496Z,94.77
2017-09-11T03:34:49.571Z,94.57
2017-09-11T03:35:56.112Z,94.57
2017-09-11T03:37:03.548Z,94.71
2017-09-11T03:38:10.845Z,94.55
2017-09-11T03:39:17.106Z,94.58
2017-09-11T03:40:23.855Z,94.28
2017-09-11T03:41:30.012Z,94.24
2017-09-11T03:42:36.682Z,94.25
2017-09-11T03:43:43.400Z,94.42
2017-09-11T03:44:49.693Z,94.27
2017-09-11T03:45:56.259Z,94.33
2017-09-11T03:47:02.603Z,94.31
2017-09-11T03:48:09.667Z,94.72
2017-09-11T03:49:15.947Z,94.90
2017-09-11T03:50:22.524Z,94.61
2017-09-11T03:51:29.600Z,94.56
2017-09-11T03:52:36.588Z,94.45
2017-09-11T03:53:43.119Z,94.50
2017-09-11T03:54:49.631Z,94.13
2017-09-11T03:55:58.438Z,94.51
2017-09-11T03:57:07.169Z,94.31
2017-09-11T03:58:18.196Z,94.44
2017-09-11T03:59:27.414Z,94.85
2017-09-11T04:00:38.202Z,94.77
2017-09-11T04:01:45.503Z,94.93
2017-09-11T04:02:53.067Z,94.73
2017-09-11T04:04:00.691Z,94.44
2017-09-11T04:05:09.578Z,95.17
2017-09-11T04:06:17.680Z,95.09
2017-09-11T04:07:25.548Z,95.00
2017-09-11T04:08:34.252Z,95.29
2017-09-11T04:09:42.530Z,95.41
2017-09-11T04:11:30.830Z,95.58
2017-09-11T04:13:23.156Z,95.55
2017-09-11T04:16:35.988Z,95.94
2017-09-11T04:17:44.687Z,95.51
2017-09-11T04:18:52.607Z,95.38
2017-09-11T04:20:02.229Z,95.35
2017-09-11T04:21:12.239Z,95.08
2017-09-11T04:22:20.651Z,94.74
2017-09-11T04:23:29.328Z,94.86
2017-09-11T04:24:38.355Z,94.93
2017-09-11T04:25:48.273Z,95.03
2017-09-11T04:26:56.655Z,95.08
2017-09-11T04:28:05.285Z,94.79
2017-09-11T04:29:15.158Z,94.91
2017-09-11T04:30:24.281Z,94.89
2017-09-11T04:31:34.247Z,94.52
2017-09-11T04:32:45.282Z,94.60
2017-09-11T04:33:55.352Z,94.50
2017-09-11T04:35:05.335Z,94.17
2017-09-11T04:36:15.433Z,94.10
2017-09-11T04:37:27.573Z,93.64
2017-09-11T04:38:58.214Z,93.51
2017-09-11T04:40:08.254Z,93.36
2017-09-11T04:41:18.185Z,92.93
2017-09-11T04:42:28.271Z,92.81
2017-09-11T04:43:38.243Z,92.42
2017-09-11T04:44:48.236Z,92.35
2017-09-11T04:45:57.364Z,91.83
2017-09-11T04:47:07.249Z,91.61
2017-09-11T04:48:18.286Z,91.67
2017-09-11T04:49:28.320Z,91.20
2017-09-11T04:52:11.213Z,90.92
2017-09-11T04:53:21.374Z,90.62
2017-09-11T04:54:31.319Z,90.88
2017-09-11T04:55:42.562Z,90.40
2017-09-11T04:56:54.247Z,90.36
2017-09-11T04:58:03.273Z,90.13
2017-09-11T05:00:32.272Z,90.07
2017-09-11T05:01:44.183Z,90.08
2017-09-11T05:02:55.247Z,90.12
2017-09-11T05:04:07.292Z,89.91
2017-09-11T05:05:59.304Z,89.84
2017-09-11T05:07:09.285Z,89.84
2017-09-11T05:11:51.381Z,89.31
2017-09-11T05:13:02.184Z,89.39
2017-09-11T05:14:14.318Z,89.41
2017-09-11T05:15:25.231Z,89.15
2017-09-11T05:16:35.412Z,88.88
2017-09-11T05:17:46.359Z,88.93
2017-09-11T05:18:56.239Z,89.01
2017-09-11T05:20:08.109Z,88.92
2017-09-11T05:21:17.231Z,88.87
2017-09-11T05:22:29.199Z,89.02
2017-09-11T05:23:41.323Z,88.59
2017-09-11T05:24:50.492Z,88.39
2017-09-11T05:25:59.259Z,88.58
2017-09-11T05:27:09.262Z,89.23
2017-09-11T05:28:19.501Z,89.34
2017-09-11T05:29:29.145Z,88.66
2017-09-11T05:30:39.954Z,89.03
2017-09-11T05:31:51.185Z,88.09
2017-09-11T05:33:03.190Z,87.86
2017-09-11T05:34:15.262Z,87.61
2017-09-11T05:35:25.147Z,87.88
2017-09-11T05:37:03.502Z,88.15
2017-09-11T05:40:16.125Z,87.55
2017-09-11T05:41:41.952Z,87.73
2017-09-11T05:46:10.484Z,87.18
2017-09-11T05:47:21.004Z,86.72
2017-09-11T05:48:57.182Z,86.54
2017-09-11T05:52:19.149Z,87.06
2017-09-11T05:53:31.346Z,87.12
2017-09-11T05:54:44.395Z,87.16
2017-09-11T05:56:14.924Z,87.32
2017-09-11T05:57:24.179Z,86.92
2017-09-11T06:00:20.235Z,86.77
2017-09-11T06:01:35.303Z,86.48
2017-09-11T06:02:48.102Z,86.56
2017-09-11T06:04:02.275Z,86.60
2017-09-11T06:05:13.291Z,86.28
2017-09-11T06:06:32.427Z,86.34
2017-09-11T06:08:02.262Z,86.21
2017-09-11T06:09:16.222Z,86.17
2017-09-11T06:10:28.244Z,86.24
2017-09-11T06:11:38.066Z,86.18
2017-09-11T06:12:54.134Z,85.88
2017-09-11T06:14:09.335Z,84.77
2017-09-11T06:15:54.834Z,83.91
2017-09-11T06:17:13.042Z,84.10
2017-09-11T06:19:03.093Z,83.16
2017-09-11T06:20:17.554Z,83.14
2017-09-11T06:21:29.986Z,83.64
2017-09-11T06:24:26.253Z,81.89
2017-09-11T06:25:39.316Z,82.22
2017-09-11T06:26:53.115Z,80.93
2017-09-11T06:28:05.551Z,81.77
2017-09-11T06:31:07.136Z,81.50
2017-09-11T06:32:17.073Z,80.36
2017-09-11T06:33:38.812Z,80.35
2017-09-11T06:34:50.998Z,80.38
2017-09-11T06:36:04.515Z,79.10
2017-09-11T06:40:16.839Z,78.78
2017-09-11T06:41:27.027Z,77.83
2017-09-11T06:44:25.849Z,77.92
2017-09-11T06:45:35.997Z,77.65
2017-09-11T06:46:45.007Z,76.51
2017-09-11T06:48:32.687Z,76.39
2017-09-11T06:49:43.074Z,77.27
2017-09-11T06:50:54.770Z,75.82
2017-09-11T06:52:05.968Z,75.92
2017-09-11T06:53:19.112Z,75.58
2017-09-11T06:54:28.904Z,75.41
2017-09-11T06:55:39.077Z,75.42
2017-09-11T06:56:50.264Z,75.05
2017-09-11T06:58:01.873Z,75.66
2017-09-11T06:59:12.909Z,75.08
2017-09-11T07:00:24.955Z,74.98
2017-09-11T07:02:48.102Z,73.10
2017-09-11T07:04:00.056Z,73.23
2017-09-11T07:05:11.091Z,73.91
2017-09-11T07:06:22.136Z,74.10
2017-09-11T07:07:32.942Z,74.65
2017-09-11T07:08:47.052Z,73.24
2017-09-11T07:09:57.009Z,73.63
2017-09-11T07:12:35.096Z,73.64
2017-09-11T07:13:45.858Z,72.12
2017-09-11T07:15:06.748Z,73.07
2017-09-11T07:16:17.132Z,73.10
2017-09-11T07:17:26.002Z,71.73
2017-09-11T07:18:35.971Z,71.98
2017-09-11T07:19:46.018Z,71.91
2017-09-11T07:20:57.063Z,72.86
2017-09-11T07:22:07.832Z,71.90
2017-09-11T07:23:19.914Z,72.06
2017-09-11T07:24:30.061Z,70.94
2017-09-11T07:25:38.727Z,70.88
2017-09-11T07:26:48.242Z,71.70
2017-09-11T07:27:58.062Z,72.12
2017-09-11T07:29:13.154Z,70.99
2017-09-11T07:30:36.163Z,71.81
2017-09-11T07:31:49.357Z,71.72
2017-09-11T07:33:04.841Z,72.22
2017-09-11T07:34:21.967Z,72.58
2017-09-11T07:36:09.887Z,73.14
2017-09-11T07:37:20.015Z,72.08
2017-09-11T07:38:34.021Z,71.83
2017-09-11T07:39:46.893Z,72.19
2017-09-11T07:40:58.004Z,72.59
2017-09-11T07:42:09.090Z,71.71
2017-09-11T07:43:22.033Z,72.30
2017-09-11T07:44:34.105Z,72.58
2017-09-11T07:45:46.873Z,73.57
2017-09-11T07:46:59.058Z,74.42
2017-09-11T07:48:09.927Z,73.60
2017-09-11T07:49:22.094Z,73.50
2017-09-11T07:50:36.880Z,71.21
2017-09-11T07:51:49.044Z,71.93
2017-09-11T07:53:00.165Z,72.22
2017-09-11T07:54:14.043Z,72.46
2017-09-11T07:55:22.707Z,73.76
2017-09-11T07:56:50.857Z,73.70
2017-09-11T08:03:09.153Z,71.34
2017-09-11T08:06:52.678Z,72.51
2017-09-11T08:08:06.047Z,71.35
2017-09-11T08:09:18.120Z,71.36
2017-09-11T08:10:31.812Z,71.04
2017-09-11T08:11:42.854Z,70.99
2017-09-11T08:14:23.667Z,70.59
2017-09-11T08:15:51.708Z,70.76
2017-09-11T08:18:56.929Z,70.00
2017-09-11T08:20:09.935Z,70.02
2017-09-11T08:21:22.959Z,69.18
2017-09-11T08:24:50.865Z,70.79
2017-09-11T08:26:01.840Z,71.85
2017-09-11T08:27:13.877Z,70.79
2017-09-11T08:28:22.747Z,70.74
2017-09-11T08:29:34.414Z,70.25
2017-09-11T08:30:43.770Z,69.94
2017-09-11T08:31:56.022Z,70.52
2017-09-11T08:33:06.941Z,70.45
2017-09-11T08:34:39.462Z,70.46
2017-09-11T08:35:53.301Z,69.77
2017-09-11T08:37:14.929Z,69.57
2017-09-11T08:38:29.846Z,70.39
2017-09-11T08:39:42.040Z,69.08
2017-09-11T08:40:55.890Z,68.44
2017-09-11T08:42:07.877Z,68.48
2017-09-11T08:43:18.848Z,68.94
2017-09-11T08:44:28.929Z,68.71
2017-09-11T08:45:42.741Z,69.13
2017-09-11T08:46:55.861Z,69.02
2017-09-11T08:48:05.980Z,69.59
2017-09-11T08:49:17.048Z,68.73
2017-09-11T08:50:28.024Z,68.61
2017-09-11T08:51:39.813Z,69.21
2017-09-11T08:52:49.864Z,70.20
2017-09-11T08:55:40.816Z,69.48
2017-09-11T08:57:09.944Z,70.12
2017-09-11T08:58:20.889Z,70.23
2017-09-11T09:00:46.888Z,69.95
2017-09-11T09:01:58.801Z,68.89
2017-09-11T09:03:11.738Z,69.06
2017-09-11T09:06:04.717Z,68.47
2017-09-11T09:07:19.919Z,67.04
2017-09-11T09:08:30.884Z,66.76
2017-09-11T09:09:40.614Z,65.76
2017-09-11T09:10:49.791Z,66.64
2017-09-11T09:12:01.833Z,66.56
2017-09-11T09:13:11.760Z,66.02
2017-09-11T09:14:53.599Z,66.74
2017-09-11T09:17:53.887Z,65.25
2017-09-11T09:19:23.541Z,66.48
2017-09-11T09:20:34.805Z,64.38
2017-09-11T09:21:47.368Z,63.85
2017-09-11T09:23:05.657Z,63.93
2017-09-11T09:24:47.575Z,63.70
2017-09-11T09:26:25.340Z,63.86
2017-09-11T09:27:35.799Z,64.01
2017-09-11T09:28:45.784Z,64.48
2017-09-11T09:29:56.576Z,64.71
2017-09-11T09:31:11.744Z,64.44
2017-09-11T09:32:20.578Z,66.53
2017-09-11T09:33:30.672Z,65.50
2017-09-11T09:34:43.711Z,65.63
2017-09-11T09:35:57.712Z,65.04
2017-09-11T09:38:34.817Z,64.79
2017-09-11T09:42:35.656Z,64.51
2017-09-11T09:43:48.672Z,65.05
2017-09-11T09:44:59.629Z,64.68
2017-09-11T09:46:09.650Z,65.01
2017-09-11T09:47:21.755Z,64.63
2017-09-11T09:48:56.361Z,64.14
2017-09-11T09:50:06.650Z,65.21
2017-09-11T09:51:21.619Z,63.68
2017-09-11T09:52:33.631Z,64.07
2017-09-11T09:53:43.763Z,63.78
2017-09-11T09:54:55.596Z,64.92
2017-09-11T09:56:07.358Z,65.84
2017-09-11T09:57:17.869Z,65.04
2017-09-11T09:58:27.164Z,64.45
2017-09-11T09:59:38.700Z,64.18
2017-09-11T10:00:51.612Z,65.41
2017-09-11T10:02:02.705Z,64.53
2017-09-11T10:03:19.714Z,63.82
2017-09-11T10:04:30.730Z,64.33
2017-09-11T10:05:40.947Z,63.96
2017-09-11T10:07:01.737Z,62.70
2017-09-11T10:08:12.772Z,62.76
2017-09-11T10:09:23.585Z,62.36
2017-09-11T10:10:36.958Z,62.77
2017-09-11T10:11:48.732Z,62.50
2017-09-11T10:12:58.779Z,63.99
2017-09-11T10:14:08.492Z,61.78
2017-09-11T10:15:19.602Z,62.23
2017-09-11T10:16:30.495Z,62.83
2017-09-11T10:17:42.493Z,62.74
2017-09-11T10:18:53.708Z,61.94
2017-09-11T10:20:03.503Z,61.27
2017-09-11T10:21:15.620Z,61.56
2017-09-11T10:22:26.677Z,61.47
2017-09-11T10:23:37.683Z,61.34
2017-09-11T10:24:48.692Z,61.10
2017-09-11T10:25:59.620Z,62.32
2017-09-11T10:27:12.910Z,63.91
2017-09-11T10:28:25.588Z,65.29
2017-09-11T10:29:39.887Z,62.51
2017-09-11T10:30:50.570Z,61.24
2017-09-11T10:32:23.631Z,64.67
2017-09-11T10:33:35.590Z,63.03
2017-09-11T10:34:45.553Z,63.63
2017-09-11T10:35:55.775Z,62.27
2017-09-11T10:37:05.650Z,62.13
2017-09-11T10:38:16.439Z,61.67
2017-09-11T10:39:26.552Z,61.56
2017-09-11T10:40:41.733Z,61.60
2017-09-11T10:41:51.550Z,64.26
2017-09-11T10:43:06.574Z,63.87
2017-09-11T10:44:21.512Z,63.25
2017-09-11T10:45:35.842Z,63.04
2017-09-11T10:46:47.693Z,63.91
2017-09-11T10:48:22.374Z,63.82
2017-09-11T10:51:37.491Z,64.35
2017-09-11T10:55:23.318Z,63.39
2017-09-11T10:56:35.599Z,63.20
2017-09-11T10:57:47.515Z,63.15
2017-09-11T10:58:58.394Z,61.67
2017-09-11T11:00:11.667Z,62.00
2017-09-11T11:01:21.941Z,60.33
2017-09-11T11:03:08.756Z,60.67
2017-09-11T11:04:23.598Z,59.59
2017-09-11T11:05:35.675Z,58.96
2017-09-11T11:06:48.476Z,58.29
2017-09-11T11:08:00.443Z,59.44
2017-09-11T11:09:13.523Z,59.87
2017-09-11T11:10:25.535Z,59.14
2017-09-11T11:11:37.504Z,58.24
2017-09-11T11:12:49.655Z,58.39
2017-09-11T11:16:08.350Z,58.84
2017-09-11T11:19:41.480Z,57.78
2017-09-11T11:20:52.447Z,58.04
2017-09-11T11:22:03.435Z,59.27
2017-09-11T11:23:14.397Z,58.20
2017-09-11T11:24:25.419Z,57.55
2017-09-11T11:25:37.522Z,57.99
2017-09-11T11:26:48.344Z,57.02
2017-09-11T11:27:58.452Z,57.12
2017-09-11T11:29:08.506Z,57.30
2017-09-11T11:30:19.516Z,57.82
2017-09-11T11:31:29.428Z,59.07
2017-09-11T11:32:39.998Z,58.43
2017-09-11T11:33:51.555Z,58.56
2017-09-11T11:35:08.525Z,59.18
2017-09-11T11:36:18.313Z,59.37
2017-09-11T11:38:47.471Z,58.59
2017-09-11T11:39:58.458Z,57.76
2017-09-11T11:41:08.268Z,59.29
2017-09-11T11:42:20.551Z,58.88
2017-09-11T11:43:32.387Z,58.88
2017-09-11T11:44:42.449Z,58.95
2017-09-11T11:45:53.436Z,59.90
2017-09-11T11:47:03.467Z,57.13
2017-09-11T11:48:14.748Z,56.32
2017-09-11T11:49:26.363Z,55.90
2017-09-11T11:50:37.250Z,58.25
2017-09-11T11:51:48.539Z,58.43
2017-09-11T11:53:01.280Z,58.59
2017-09-11T11:54:11.295Z,58.22
2017-09-11T11:55:58.316Z,59.62
2017-09-11T11:57:10.535Z,59.38
2017-09-11T12:00:40.431Z,57.48
2017-09-11T12:01:53.399Z,57.32
2017-09-11T12:03:03.346Z,57.98
2017-09-11T12:04:16.528Z,58.89
2017-09-11T12:05:26.637Z,60.36
2017-09-11T12:06:39.580Z,59.66
2017-09-11T12:07:50.617Z,59.44
2017-09-11T12:11:07.564Z,59.56
2017-09-11T12:12:19.370Z,59.48
2017-09-11T12:13:31.316Z,59.41
2017-09-11T12:14:44.318Z,58.43
2017-09-11T12:22:56.350Z,60.00
2017-09-11T12:24:09.233Z,59.46
2017-09-11T12:25:20.352Z,58.84
2017-09-11T12:26:31.179Z,60.35
2017-09-11T12:28:04.048Z,60.51
2017-09-11T12:29:12.419Z,60.90
2017-09-11T12:30:23.479Z,61.46
2017-09-11T12:31:34.478Z,61.51
2017-09-11T12:32:46.431Z,60.94
2017-09-11T12:33:56.211Z,61.82
2017-09-11T12:35:05.607Z,61.41
2017-09-11T12:36:18.323Z,63.96
2017-09-11T12:37:30.526Z,61.54
2017-09-11T12:38:40.457Z,61.33
2017-09-11T12:39:50.265Z,61.04
2017-09-11T12:41:02.574Z,61.37
2017-09-11T12:44:49.166Z,61.74
2017-09-11T12:46:00.514Z,62.90
2017-09-11T12:48:53.286Z,61.77
2017-09-11T12:50:03.241Z,61.21
2017-09-11T12:51:17.324Z,61.28
2017-09-11T12:52:28.263Z,62.44
2017-09-11T12:53:38.097Z,62.19
2017-09-11T12:54:57.063Z,61.86
2017-09-11T12:56:06.038Z,61.97
2017-09-11T12:57:19.057Z,62.79
2017-09-11T12:58:30.495Z,61.79
2017-09-11T12:59:40.128Z,61.93
2017-09-11T13:00:52.227Z,60.51
2017-09-11T13:03:16.201Z,61.72
2017-09-11T13:04:26.542Z,59.91
2017-09-11T13:05:37.203Z,58.78
2017-09-11T13:06:47.273Z,60.38
2017-09-11T13:07:57.393Z,61.08
2017-09-11T13:09:08.166Z,60.10
2017-09-11T13:10:19.056Z,59.24
2017-09-11T13:11:29.207Z,59.77
2017-09-11T13:12:39.170Z,59.97
2017-09-11T13:13:50.904Z,60.31
2017-09-11T13:15:01.411Z,60.62
2017-09-11T13:16:11.132Z,61.18
2017-09-11T13:17:20.215Z,59.37
2017-09-11T13:18:30.240Z,60.40
2017-09-11T13:19:41.212Z,60.05
2017-09-11T13:20:52.186Z,60.79
2017-09-11T13:22:02.148Z,61.02
2017-09-11T13:23:14.419Z,60.90
2017-09-11T13:24:24.317Z,61.69
2017-09-11T13:25:34.351Z,60.24
2017-09-11T13:26:47.190Z,60.69
2017-09-11T13:27:57.212Z,61.25
2017-09-11T13:29:07.219Z,60.53
2017-09-11T13:30:16.119Z,59.20
2017-09-11T13:31:27.269Z,59.25
2017-09-11T13:32:37.133Z,59.33
2017-09-11T13:33:47.224Z,59.87
2017-09-11T13:34:57.229Z,61.40
2017-09-11T13:38:13.131Z,60.74
2017-09-11T13:39:23.133Z,60.30
2017-09-11T13:40:35.545Z,59.96
2017-09-11T13:41:45.064Z,60.16
2017-09-11T13:42:56.228Z,61.41
2017-09-11T13:44:06.051Z,61.19
2017-09-11T13:45:16.182Z,61.13
2017-09-11T13:46:26.697Z,61.98
2017-09-11T13:47:42.394Z,62.10
2017-09-11T13:51:44.957Z,61.82
2017-09-11T13:52:54.296Z,62.11
2017-09-11T13:54:03.192Z,61.27
2017-09-11T13:55:13.059Z,61.98
2017-09-11T13:56:22.245Z,61.86
2017-09-11T14:00:25.871Z,62.00
2017-09-11T14:01:36.056Z,60.37
2017-09-11T14:05:55.113Z,59.31
2017-09-11T14:09:36.860Z,59.13
2017-09-11T14:10:47.622Z,58.50
2017-09-11T14:11:58.039Z,58.59
2017-09-11T14:13:07.912Z,57.38
2017-09-11T14:14:19.049Z,57.56
2017-09-11T14:15:29.091Z,56.63
2017-09-11T14:16:40.204Z,58.04
2017-09-11T14:17:51.089Z,56.55
2017-09-11T14:19:18.059Z,56.31
2017-09-11T14:22:27.175Z,57.03
2017-09-11T14:23:36.109Z,55.90
2017-09-11T14:24:46.998Z,56.82
2017-09-11T14:25:58.045Z,57.16
2017-09-11T14:27:10.989Z,57.19
2017-09-11T14:28:21.102Z,56.64
2017-09-11T14:31:13.377Z,56.63
2017-09-11T14:32:23.314Z,55.17
2017-09-11T14:33:33.977Z,54.67
2017-09-11T14:34:45.057Z,55.32
2017-09-11T14:35:53.915Z,54.64
2017-09-11T14:37:03.012Z,55.90
2017-09-11T14:38:13.080Z,56.75
2017-09-11T14:39:22.130Z,58.19
2017-09-11T14:40:32.173Z,59.37
2017-09-11T14:41:43.031Z,59.57
2017-09-11T14:42:52.918Z,58.95
2017-09-11T14:44:03.054Z,59.04
2017-09-11T14:45:11.618Z,59.35
2017-09-11T14:46:19.029Z,59.08
2017-09-11T14:47:27.913Z,61.03
2017-09-11T14:48:38.082Z,60.99
2017-09-11T14:49:49.191Z,58.94
2017-09-11T14:50:59.925Z,59.50
2017-09-11T14:52:09.863Z,59.69
2017-09-11T14:53:21.143Z,59.79
2017-09-11T14:54:30.279Z,58.89
2017-09-11T14:55:40.910Z,59.27
2017-09-11T14:56:51.149Z,57.88
2017-09-11T14:58:00.827Z,58.28
2017-09-11T14:59:29.744Z,58.76
2017-09-11T15:00:40.035Z,56.30
2017-09-11T15:01:49.151Z,55.58
2017-09-11T15:02:58.044Z,55.32
2017-09-11T15:04:20.961Z,54.66
2017-09-11T15:05:28.966Z,56.24
2017-09-11T15:06:38.968Z,57.19
2017-09-11T15:07:53.223Z,56.99
2017-09-11T15:11:21.895Z,57.13
2017-09-11T15:12:31.858Z,57.52
2017-09-11T15:13:41.108Z,55.72
2017-09-11T15:14:54.859Z,54.43
2017-09-11T15:18:42.083Z,53.22
2017-09-11T15:22:08.015Z,53.63
2017-09-11T15:23:38.675Z,52.69
2017-09-11T15:24:46.831Z,52.46
2017-09-11T15:25:57.160Z,50.70
2017-09-11T15:27:06.973Z,50.80
2017-09-11T15:28:18.849Z,51.22
2017-09-11T15:29:29.193Z,51.84
2017-09-11T15:30:53.863Z,53.07
2017-09-11T15:32:14.151Z,55.83
2017-09-11T15:33:25.916Z,56.80
2017-09-11T15:34:38.897Z,56.71
2017-09-11T15:37:27.101Z,51.38
2017-09-11T15:38:37.189Z,49.92
2017-09-11T15:39:48.863Z,47.44
2017-09-11T15:40:59.349Z,46.34
2017-09-11T15:42:10.879Z,46.86
2017-09-11T15:43:24.884Z,46.27
2017-09-11T15:44:34.914Z,47.78
2017-09-11T15:45:44.334Z,45.85
2017-09-11T15:46:56.282Z,44.57
2017-09-11T15:48:07.839Z,44.43
2017-09-11T15:49:17.713Z,45.00
2017-09-11T15:50:26.694Z,44.95
2017-09-11T15:51:37.806Z,47.54
2017-09-11T15:52:48.633Z,45.87
2017-09-11T15:53:58.854Z,45.51
2017-09-11T15:55:07.902Z,46.41
2017-09-11T15:56:18.834Z,45.65
2017-09-11T15:57:30.836Z,46.23
2017-09-11T15:58:40.951Z,44.64
2017-09-11T16:00:06.323Z,44.64
2017-09-11T16:01:31.908Z,45.57
2017-09-11T16:02:50.859Z,45.23
2017-09-11T16:04:20.321Z,47.22
2017-09-11T16:07:28.754Z,51.48
2017-09-11T16:10:35.757Z,53.06
2017-09-11T16:12:13.720Z,52.76
2017-09-11T16:13:36.700Z,54.49
2017-09-11T16:14:50.666Z,55.34
2017-09-11T16:19:35.127Z,56.11
2017-09-11T16:21:15.633Z,57.12
2017-09-11T16:22:27.010Z,57.81
2017-09-11T16:24:00.644Z,58.98
2017-09-11T16:25:14.041Z,59.11
2017-09-11T16:26:50.758Z,59.58
2017-09-11T16:28:02.739Z,59.70
2017-09-11T16:29:14.753Z,60.99
2017-09-11T16:30:28.047Z,61.36
2017-09-11T16:31:39.793Z,61.79
2017-09-11T16:32:52.838Z,61.31
2017-09-11T16:34:11.442Z,62.36
2017-09-11T16:35:44.583Z,63.83
2017-09-11T16:36:55.739Z,63.16
2017-09-11T16:38:10.994Z,63.89
2017-09-11T16:40:05.920Z,64.17
2017-09-11T16:41:46.612Z,64.57
2017-09-11T16:42:56.592Z,64.11
2017-09-11T16:44:07.865Z,63.49
2017-09-11T16:49:42.625Z,64.78
2017-09-11T16:50:51.876Z,64.99
2017-09-11T16:52:01.738Z,64.22
2017-09-11T16:55:46.937Z,63.88
2017-09-11T16:56:57.730Z,62.91
2017-09-11T16:58:07.668Z,66.11
2017-09-11T16:59:16.173Z,71.60
2017-09-11T17:00:28.584Z,77.33
2017-09-11T17:01:39.651Z,80.29
2017-09-11T17:02:49.603Z,84.16
2017-09-11T17:03:59.756Z,84.95
2017-09-11T17:05:10.738Z,85.66
2017-09-11T17:06:21.815Z,86.52
2017-09-11T17:07:32.018Z,87.14
2017-09-11T17:08:42.624Z,88.58
2017-09-11T17:09:53.009Z,88.86
2017-09-11T17:11:02.703Z,89.11
2017-09-11T17:12:12.895Z,89.80
2017-09-11T17:13:22.724Z,89.82
2017-09-11T17:14:33.756Z,88.64
2017-09-11T17:15:44.807Z,88.89
2017-09-11T17:16:54.685Z,90.07
2017-09-11T17:18:04.702Z,89.99
2017-09-11T17:19:15.636Z,89.88